الصفحة الرئيسية
METAR-TAF:

METAR-TAF

مطار :

تشنغدو, جمهورية الصين الشعبية

مطار تشنغدو شوانغليو الدولي

دائرة عرض: 30-40N, خط طول: 104-01E, ارتفاع: 508 متر

مراقبة الطقس الحالي

تاريخ ووقت الإصدار 1ساعة و 8 دقيقة قبل الساعة 15:00UTC
رياح هادئة
درجة الحرارة 22°درجة مئوية
الرطوبة 88%
ضغط 1008 hPa
الرؤية 10 كم أو أكثر
الغيوم لا تقل 1500 م ولا وجود لمزنة ركامية السحاب الأسود

METAR: ZUUU 221500Z 00000MPS CAVOK 22/20 Q1008 NOSIG

زمن: 00:08 (16:08 UTC)

توقعات

تاريخ ووقت الإصدار 7ساعات و 56 دقيقة قبل الساعة 08:12UTC
التوقعات صالحة من22 الساعة 12 UTC إلى 23 الساعة 12 UTC
ريح 6 عقدة من الشمال/الشمال الشرقي
الرؤية: 5000 متر
غيوم متفرقة على ارتفاع 5000 قدم
غشاء
مؤقت
من 22 الساعة 18 UTC إلى 22 الساعة 24 UTC
غيوم قليلة على ارتفاع 3000 قدم, مزنة ركامية.
غيوم متفرقة على ارتفاع 4000 قدم
زخات من الأمطار الخفيفة

TAF: ZUUU 220812Z 2212/2312 02003MPS 5000 BR SCT050 TX24/2307Z TN18/2222Z TEMPO 2218/2224 -SHRA FEW030CB SCT040

أرصاد الطقس والتوقعات من أكثر من 4000 مطار (تقارير الطقس للمطار METAR والتنبؤ بالطقس بالمطارTAF).

المحطات المتاحة هي النقط الصفراء والحمراء على الخريطة.

حرك المؤشر فوق النقطة لمعرفة اسم المحطة.

ثم انقر لمعرفة أرصاد وتوقعات الطقس.

لتغيير الخارطة: اضغط على الأزرار الخضراء مع رمز الصليب الأسود للتكبير. على الزر الأخضر مع شرطة للتصغير، أو على الأسهم الخضراء للخرائط المجاورة.


METAR-TAF: